createdAt,value
2023-04-26T00:00:42.570Z,100.00
2023-04-26T00:03:10.010Z,100.00
2023-04-26T00:05:38.356Z,100.00
2023-04-26T00:08:06.014Z,100.00
2023-04-26T00:10:33.080Z,100.00
2023-04-26T00:13:00.029Z,100.00
2023-04-26T00:15:26.964Z,100.00
2023-04-26T00:17:53.960Z,100.00
2023-04-26T00:20:20.897Z,100.00
2023-04-26T00:22:47.864Z,100.00
2023-04-26T00:25:14.721Z,100.00
2023-04-26T00:27:41.824Z,100.00
2023-04-26T00:30:09.501Z,100.00
2023-04-26T00:32:36.601Z,100.00
2023-04-26T00:35:06.780Z,100.00
2023-04-26T00:37:34.189Z,100.00
2023-04-26T00:40:01.192Z,100.00
2023-04-26T00:42:28.688Z,100.00
2023-04-26T00:44:57.821Z,100.00
2023-04-26T00:47:31.214Z,100.00
2023-04-26T00:49:59.821Z,100.00
2023-04-26T00:52:27.629Z,100.00
2023-04-26T00:54:56.645Z,100.00
2023-04-26T00:57:24.093Z,100.00
2023-04-26T00:59:51.025Z,100.00
2023-04-26T01:02:18.027Z,100.00
2023-04-26T01:04:45.945Z,100.00
2023-04-26T01:07:13.240Z,100.00
2023-04-26T01:09:41.180Z,100.00
2023-04-26T01:12:09.163Z,100.00
2023-04-26T01:14:38.184Z,100.00
2023-04-26T01:17:06.382Z,100.00
2023-04-26T01:19:33.494Z,100.00
2023-04-26T01:22:00.426Z,100.00
2023-04-26T01:24:27.428Z,100.00
2023-04-26T01:26:54.387Z,100.00
2023-04-26T01:29:22.592Z,100.00
2023-04-26T01:31:49.597Z,100.00
2023-04-26T01:34:16.934Z,100.00
2023-04-26T01:36:46.248Z,100.00
2023-04-26T01:39:13.824Z,100.00
2023-04-26T01:41:40.914Z,100.00
2023-04-26T01:44:07.998Z,100.00
2023-04-26T01:46:34.973Z,100.00
2023-04-26T01:49:02.031Z,100.00
2023-04-26T01:51:30.275Z,100.00
2023-04-26T01:53:57.232Z,100.00
2023-04-26T01:56:25.343Z,100.00
2023-04-26T01:58:55.720Z,100.00
2023-04-26T02:01:23.804Z,100.00
2023-04-26T02:03:51.531Z,100.00
2023-04-26T02:06:19.739Z,100.00
2023-04-26T02:08:46.683Z,100.00
2023-04-26T02:11:13.744Z,100.00
2023-04-26T02:13:40.729Z,100.00
2023-04-26T02:16:08.118Z,100.00
2023-04-26T02:18:35.692Z,100.00
2023-04-26T02:21:02.673Z,100.00
2023-04-26T02:23:31.604Z,100.00
2023-04-26T02:25:58.575Z,100.00
2023-04-26T02:28:25.458Z,100.00
2023-04-26T02:30:56.940Z,100.00
2023-04-26T02:33:24.565Z,100.00
2023-04-26T02:35:51.744Z,100.00
2023-04-26T02:38:19.476Z,100.00
2023-04-26T02:40:46.505Z,100.00
2023-04-26T02:43:14.056Z,100.00
2023-04-26T02:45:42.871Z,100.00
2023-04-26T02:48:11.689Z,100.00
2023-04-26T02:50:40.309Z,100.00
2023-04-26T02:53:07.724Z,100.00
2023-04-26T02:55:34.672Z,100.00
2023-04-26T02:58:01.693Z,100.00
2023-04-26T03:00:28.880Z,100.00
2023-04-26T03:02:57.237Z,100.00
2023-04-26T03:05:24.735Z,100.00
2023-04-26T03:07:52.991Z,100.00
2023-04-26T03:10:19.894Z,100.00
2023-04-26T03:12:47.016Z,100.00
2023-04-26T03:15:15.542Z,100.00
2023-04-26T03:17:43.596Z,100.00
2023-04-26T03:20:12.023Z,100.00
2023-04-26T03:22:39.406Z,100.00
2023-04-26T03:25:08.079Z,100.00
2023-04-26T03:27:35.247Z,100.00
2023-04-26T03:30:02.456Z,100.00
2023-04-26T03:32:29.866Z,100.00
2023-04-26T03:34:56.983Z,100.00
2023-04-26T03:37:23.976Z,100.00
2023-04-26T03:39:57.919Z,100.00
2023-04-26T03:42:25.043Z,100.00
2023-04-26T03:44:51.999Z,100.00
2023-04-26T03:47:18.961Z,100.00
2023-04-26T03:49:45.962Z,100.00
2023-04-26T03:52:12.897Z,100.00
2023-04-26T03:54:39.876Z,100.00
2023-04-26T03:57:06.920Z,100.00
2023-04-26T03:59:34.767Z,100.00
2023-04-26T04:02:02.247Z,100.00
2023-04-26T04:04:29.452Z,100.00
2023-04-26T04:06:56.545Z,100.00
2023-04-26T04:09:23.499Z,100.00
2023-04-26T04:11:50.575Z,100.00
2023-04-26T04:14:17.899Z,100.00
2023-04-26T04:16:46.809Z,100.00
2023-04-26T04:19:13.682Z,100.00
2023-04-26T04:21:43.023Z,100.00
2023-04-26T04:24:10.233Z,100.00
2023-04-26T04:26:38.027Z,100.00
2023-04-26T04:29:09.310Z,100.00
2023-04-26T04:31:40.300Z,100.00
2023-04-26T04:34:09.323Z,100.00
2023-04-26T04:36:41.251Z,99.68
2023-04-26T04:39:12.685Z,100.00
2023-04-26T04:42:04.455Z,86.21
2023-04-26T04:44:31.772Z,82.60
2023-04-26T04:46:59.269Z,78.96
2023-04-26T04:49:26.393Z,72.79
2023-04-26T04:51:53.657Z,77.37
2023-04-26T04:54:21.045Z,79.07
2023-04-26T04:56:48.470Z,80.94
2023-04-26T04:59:16.575Z,71.40
2023-04-26T05:01:43.677Z,72.19
2023-04-26T05:04:15.531Z,78.99
2023-04-26T05:06:43.812Z,83.08
2023-04-26T05:09:11.679Z,87.41
2023-04-26T05:11:39.379Z,88.93
2023-04-26T05:14:08.658Z,92.95
2023-04-26T05:16:37.474Z,92.34
2023-04-26T05:19:05.338Z,92.49
2023-04-26T05:21:33.939Z,89.75
2023-04-26T05:24:00.957Z,91.38
2023-04-26T05:26:28.315Z,95.95
2023-04-26T05:29:01.222Z,97.02
2023-04-26T05:31:40.266Z,95.94
2023-04-26T05:34:45.803Z,99.60
2023-04-26T05:37:17.498Z,100.00
2023-04-26T05:39:44.822Z,100.00
2023-04-26T05:42:12.071Z,94.78
2023-04-26T05:44:40.123Z,93.65
2023-04-26T05:47:07.215Z,93.86
2023-04-26T05:49:34.132Z,91.85
2023-04-26T05:52:01.161Z,89.22
2023-04-26T05:54:28.529Z,88.74
2023-04-26T05:56:57.830Z,87.28
2023-04-26T05:59:27.249Z,86.90
2023-04-26T06:01:54.748Z,86.89
2023-04-26T06:04:21.929Z,85.59
2023-04-26T06:07:01.391Z,86.99
2023-04-26T06:09:28.687Z,84.55
2023-04-26T06:11:55.848Z,83.86
2023-04-26T06:14:30.050Z,82.96
2023-04-26T06:17:01.365Z,80.95
2023-04-26T06:19:31.605Z,83.15
2023-04-26T06:21:58.816Z,82.87
2023-04-26T06:24:26.329Z,82.76
2023-04-26T06:26:53.409Z,82.18
2023-04-26T06:29:21.911Z,82.77
2023-04-26T06:31:49.276Z,77.97
2023-04-26T06:34:18.123Z,80.53
2023-04-26T06:36:45.084Z,75.09
2023-04-26T06:39:12.154Z,76.85
2023-04-26T06:41:40.340Z,76.38
2023-04-26T06:44:10.425Z,73.02
2023-04-26T06:46:42.684Z,77.47
2023-04-26T06:49:11.685Z,75.76
2023-04-26T06:51:38.691Z,75.41
2023-04-26T06:54:05.799Z,71.23
2023-04-26T06:56:32.778Z,75.66
2023-04-26T06:59:04.303Z,71.57
2023-04-26T07:01:34.107Z,70.25
2023-04-26T07:04:08.035Z,72.12
2023-04-26T07:06:35.515Z,68.68
2023-04-26T07:09:03.064Z,71.35
2023-04-26T07:11:30.679Z,68.76
2023-04-26T07:13:58.037Z,70.03
2023-04-26T07:16:25.093Z,71.75
2023-04-26T07:18:58.493Z,68.82
2023-04-26T07:21:27.110Z,68.86
2023-04-26T07:23:57.148Z,75.00
2023-04-26T07:26:24.686Z,64.18
2023-04-26T07:28:52.685Z,66.85
2023-04-26T07:31:20.587Z,66.21
2023-04-26T07:33:48.021Z,66.12
2023-04-26T07:36:15.033Z,69.71
2023-04-26T07:38:42.665Z,60.12
2023-04-26T07:41:09.707Z,61.36
2023-04-26T07:43:36.831Z,64.80
2023-04-26T07:46:03.947Z,63.60
2023-04-26T07:48:31.072Z,65.08
2023-04-26T07:50:58.339Z,68.25
2023-04-26T07:53:25.327Z,64.35
2023-04-26T07:55:52.590Z,59.40
2023-04-26T07:58:19.685Z,64.38
2023-04-26T08:00:46.752Z,61.64
2023-04-26T08:03:17.093Z,65.58
2023-04-26T08:05:44.943Z,65.10
2023-04-26T08:08:12.887Z,59.58
2023-04-26T08:10:43.183Z,60.93
2023-04-26T08:13:10.383Z,56.28
2023-04-26T08:15:37.662Z,60.03
2023-04-26T08:18:04.839Z,60.03
2023-04-26T08:20:32.978Z,58.25
2023-04-26T08:23:00.250Z,60.73
2023-04-26T08:25:27.739Z,59.69
2023-04-26T08:27:55.179Z,62.64
2023-04-26T08:30:22.825Z,60.24
2023-04-26T08:32:49.842Z,58.83
2023-04-26T08:35:17.040Z,60.24
2023-04-26T08:37:44.249Z,57.23
2023-04-26T08:40:11.471Z,55.50
2023-04-26T08:42:45.309Z,56.66
2023-04-26T08:45:12.286Z,58.37
2023-04-26T08:47:48.771Z,56.19
2023-04-26T08:50:21.311Z,59.51
2023-04-26T08:52:51.498Z,56.94
2023-04-26T08:55:23.158Z,61.68
2023-04-26T08:57:51.130Z,60.97
2023-04-26T09:00:19.139Z,57.77
2023-04-26T09:02:54.041Z,55.54
2023-04-26T09:05:24.790Z,52.83
2023-04-26T09:07:57.145Z,50.02
2023-04-26T09:10:24.302Z,50.78
2023-04-26T09:12:58.451Z,49.92
2023-04-26T09:15:27.476Z,49.16
2023-04-26T09:17:54.685Z,50.13
2023-04-26T09:20:24.672Z,51.28
2023-04-26T09:22:54.024Z,50.47
2023-04-26T09:25:32.085Z,50.25
2023-04-26T09:28:00.379Z,46.75
2023-04-26T09:30:28.500Z,45.04
2023-04-26T09:33:07.059Z,46.03
2023-04-26T09:35:35.367Z,45.87
2023-04-26T09:38:12.259Z,43.64
2023-04-26T09:40:45.599Z,42.87
2023-04-26T09:43:19.658Z,41.45
2023-04-26T09:45:50.794Z,44.58
2023-04-26T09:48:23.198Z,46.46
2023-04-26T09:50:52.805Z,46.40
2023-04-26T09:53:34.843Z,43.27
2023-04-26T09:56:12.561Z,46.43
2023-04-26T09:58:48.890Z,45.98
2023-04-26T10:01:18.214Z,46.00
2023-04-26T10:03:46.373Z,44.66
2023-04-26T10:06:14.063Z,43.08
2023-04-26T10:08:41.394Z,44.36
2023-04-26T10:11:10.822Z,44.15
2023-04-26T10:13:38.903Z,45.09
2023-04-26T10:16:07.030Z,44.62
2023-04-26T10:18:34.629Z,45.58
2023-04-26T10:21:25.578Z,46.12
2023-04-26T10:23:53.062Z,44.82
2023-04-26T10:26:56.997Z,45.68
2023-04-26T10:29:26.322Z,47.58
2023-04-26T10:32:02.576Z,45.38
2023-04-26T10:34:34.135Z,44.99
2023-04-26T10:37:11.831Z,48.38
2023-04-26T10:39:40.236Z,48.61
2023-04-26T10:42:26.057Z,49.67
2023-04-26T10:44:55.213Z,46.56
2023-04-26T10:47:24.834Z,44.54
2023-04-26T10:49:52.112Z,45.64
2023-04-26T10:52:23.349Z,45.76
2023-04-26T10:54:52.966Z,43.93
2023-04-26T10:57:20.846Z,43.84
2023-04-26T11:00:13.387Z,47.80
2023-04-26T11:02:53.458Z,44.79
2023-04-26T11:05:36.034Z,44.22
2023-04-26T11:08:20.141Z,40.91
2023-04-26T11:11:03.552Z,42.29
2023-04-26T11:13:35.850Z,41.08
2023-04-26T11:16:05.898Z,43.47
2023-04-26T11:18:34.093Z,41.21
2023-04-26T11:21:01.689Z,40.51
2023-04-26T11:23:30.235Z,40.21
2023-04-26T11:26:04.995Z,36.88
2023-04-26T11:28:34.302Z,37.37
2023-04-26T11:31:02.178Z,37.27
2023-04-26T11:33:29.229Z,39.11
2023-04-26T11:35:58.667Z,42.65
2023-04-26T11:38:27.445Z,41.55
2023-04-26T11:41:02.353Z,39.71
2023-04-26T11:43:32.456Z,40.70
2023-04-26T11:46:03.487Z,43.26
2023-04-26T11:48:32.117Z,42.82
2023-04-26T11:51:00.175Z,41.61
2023-04-26T11:53:42.193Z,43.11
2023-04-26T11:56:20.298Z,42.71
2023-04-26T11:58:48.958Z,40.75
2023-04-26T12:01:29.255Z,42.75
2023-04-26T12:03:58.393Z,42.71
2023-04-26T12:06:41.874Z,44.40
2023-04-26T12:09:11.867Z,41.12
2023-04-26T12:11:39.571Z,43.13
2023-04-26T12:14:08.110Z,42.39
2023-04-26T12:16:38.069Z,42.39
2023-04-26T12:19:07.680Z,43.58
2023-04-26T12:21:44.444Z,42.79
2023-04-26T12:24:24.855Z,41.50
2023-04-26T12:26:52.682Z,40.95
2023-04-26T12:29:19.610Z,42.04
2023-04-26T12:31:47.219Z,41.45
2023-04-26T12:34:14.404Z,40.91
2023-04-26T12:36:45.279Z,42.29
2023-04-26T12:39:14.735Z,42.43
2023-04-26T12:41:42.794Z,43.45
2023-04-26T12:44:10.709Z,45.06
2023-04-26T12:46:37.983Z,42.31
2023-04-26T12:49:05.396Z,44.35
2023-04-26T12:51:32.387Z,42.76
2023-04-26T12:53:59.385Z,43.53
2023-04-26T12:56:26.437Z,45.37
2023-04-26T12:58:53.537Z,46.19
2023-04-26T13:01:21.147Z,46.53
2023-04-26T13:03:48.339Z,46.47
2023-04-26T13:06:15.538Z,44.16
2023-04-26T13:08:42.723Z,45.73
2023-04-26T13:11:09.743Z,44.17
2023-04-26T13:13:43.834Z,45.19
2023-04-26T13:16:13.125Z,45.61
2023-04-26T13:18:40.660Z,44.77
2023-04-26T13:21:07.990Z,44.91
2023-04-26T13:23:35.120Z,42.08
2023-04-26T13:26:02.140Z,41.91
2023-04-26T13:28:29.108Z,41.13
2023-04-26T13:30:56.418Z,39.39
2023-04-26T13:33:23.641Z,40.37
2023-04-26T13:35:50.796Z,41.19
2023-04-26T13:38:18.084Z,41.44
2023-04-26T13:40:45.618Z,43.00
2023-04-26T13:43:12.675Z,44.97
2023-04-26T13:45:39.973Z,45.49
2023-04-26T13:48:07.273Z,44.26
2023-04-26T13:50:37.197Z,45.05
2023-04-26T13:53:04.800Z,43.37
2023-04-26T13:55:32.047Z,43.66
2023-04-26T13:57:59.270Z,44.15
2023-04-26T14:00:26.358Z,42.07
2023-04-26T14:02:54.881Z,42.11
2023-04-26T14:05:22.189Z,40.33
2023-04-26T14:07:49.366Z,40.43
2023-04-26T14:10:16.340Z,39.81
2023-04-26T14:12:43.604Z,41.28
2023-04-26T14:15:11.157Z,40.13
2023-04-26T14:17:38.279Z,40.05
2023-04-26T14:20:05.947Z,39.93
2023-04-26T14:22:32.957Z,41.29
2023-04-26T14:25:00.236Z,43.22
2023-04-26T14:27:27.280Z,42.08
2023-04-26T14:29:54.330Z,42.86
2023-04-26T14:32:21.458Z,43.52
2023-04-26T14:34:48.392Z,42.08
2023-04-26T14:37:15.557Z,41.06
2023-04-26T14:39:43.321Z,41.91
2023-04-26T14:42:10.396Z,41.90
2023-04-26T14:44:37.480Z,41.71
2023-04-26T14:47:08.229Z,42.10
2023-04-26T14:49:38.077Z,39.65
2023-04-26T14:52:05.263Z,37.01
2023-04-26T14:54:37.950Z,38.27
2023-04-26T14:57:05.305Z,38.86
2023-04-26T14:59:32.226Z,39.19
2023-04-26T15:01:59.318Z,40.45
2023-04-26T15:04:26.662Z,43.91
2023-04-26T15:06:53.824Z,42.83
2023-04-26T15:09:21.066Z,42.74
2023-04-26T15:11:48.073Z,41.01
2023-04-26T15:14:15.010Z,42.22
2023-04-26T15:16:42.043Z,43.14
2023-04-26T15:19:08.983Z,43.59
2023-04-26T15:21:35.961Z,44.20
2023-04-26T15:24:02.860Z,44.86
2023-04-26T15:26:31.240Z,43.95
2023-04-26T15:28:58.204Z,44.49
2023-04-26T15:31:25.246Z,45.96
2023-04-26T15:33:56.681Z,45.27
2023-04-26T15:36:23.694Z,44.88
2023-04-26T15:38:50.709Z,43.83
2023-04-26T15:41:17.808Z,44.81
2023-04-26T15:43:45.019Z,45.95
2023-04-26T15:46:15.363Z,44.57
2023-04-26T15:48:42.434Z,46.13
2023-04-26T15:51:09.418Z,45.35
2023-04-26T15:53:39.237Z,44.74
2023-04-26T15:56:18.051Z,45.96
2023-04-26T15:58:48.277Z,46.73
2023-04-26T16:01:15.537Z,47.12
2023-04-26T16:03:45.718Z,46.96
2023-04-26T16:06:14.753Z,47.88
2023-04-26T16:08:42.100Z,49.15
2023-04-26T16:11:09.208Z,47.79
2023-04-26T16:13:36.306Z,45.98
2023-04-26T16:16:08.165Z,44.20
2023-04-26T16:18:35.663Z,45.03
2023-04-26T16:21:10.303Z,45.83
2023-04-26T16:23:37.846Z,47.96
2023-04-26T16:26:05.317Z,48.55
2023-04-26T16:28:32.386Z,49.29
2023-04-26T16:30:59.412Z,49.70
2023-04-26T16:33:26.837Z,49.52
2023-04-26T16:35:55.702Z,50.25
2023-04-26T16:38:23.553Z,50.85
2023-04-26T16:41:01.739Z,50.58
2023-04-26T16:43:30.469Z,50.94
2023-04-26T16:46:03.251Z,50.67
2023-04-26T16:48:38.432Z,51.06
2023-04-26T16:51:07.703Z,51.88
2023-04-26T16:53:36.262Z,51.99
2023-04-26T16:56:03.769Z,51.39
2023-04-26T16:58:30.770Z,52.09
2023-04-26T17:00:58.178Z,51.98
2023-04-26T17:03:25.892Z,51.13
2023-04-26T17:05:53.379Z,50.19
2023-04-26T17:08:20.681Z,49.97
2023-04-26T17:10:48.338Z,49.43
2023-04-26T17:13:15.665Z,48.17
2023-04-26T17:15:43.181Z,45.35
2023-04-26T17:18:11.190Z,45.61
2023-04-26T17:20:38.721Z,43.19
2023-04-26T17:23:05.968Z,43.69
2023-04-26T17:25:33.195Z,43.49
2023-04-26T17:28:00.289Z,46.55
2023-04-26T17:30:27.270Z,50.16
2023-04-26T17:32:56.481Z,52.39
2023-04-26T17:35:23.852Z,55.43
2023-04-26T17:37:50.838Z,57.89
2023-04-26T17:40:18.870Z,58.50
2023-04-26T17:42:46.838Z,59.23
2023-04-26T17:45:14.761Z,61.17
2023-04-26T17:47:43.167Z,62.19
2023-04-26T17:50:10.807Z,63.01
2023-04-26T17:52:38.666Z,65.04
2023-04-26T17:55:06.787Z,67.12
2023-04-26T17:57:33.777Z,68.23
2023-04-26T18:00:00.725Z,70.38
2023-04-26T18:02:28.007Z,71.47
2023-04-26T18:04:55.332Z,71.76
2023-04-26T18:07:22.617Z,72.38
2023-04-26T18:09:49.669Z,73.01
2023-04-26T18:12:16.591Z,73.43
2023-04-26T18:14:46.187Z,74.49
2023-04-26T18:17:15.391Z,75.15
2023-04-26T18:19:42.638Z,75.94
2023-04-26T18:22:10.140Z,77.67
2023-04-26T18:24:37.448Z,77.51
2023-04-26T18:27:04.515Z,77.74
2023-04-26T18:29:31.502Z,78.43
2023-04-26T18:31:58.622Z,77.99
2023-04-26T18:34:25.857Z,78.08
2023-04-26T18:36:52.837Z,80.17
2023-04-26T18:39:19.769Z,79.36
2023-04-26T18:41:46.859Z,80.83
2023-04-26T18:44:13.824Z,80.65
2023-04-26T18:46:41.837Z,80.53
2023-04-26T18:49:09.798Z,80.53
2023-04-26T18:51:36.934Z,81.57
2023-04-26T18:54:04.020Z,82.25
2023-04-26T18:56:31.761Z,84.85
2023-04-26T18:58:58.752Z,85.48
2023-04-26T19:01:25.883Z,86.09
2023-04-26T19:03:52.956Z,87.68
2023-04-26T19:06:20.280Z,87.79
2023-04-26T19:08:48.033Z,88.69
2023-04-26T19:11:20.547Z,89.96
2023-04-26T19:13:47.716Z,90.20
2023-04-26T19:16:14.820Z,90.12
2023-04-26T19:18:42.166Z,89.78
2023-04-26T19:21:09.925Z,89.64
2023-04-26T19:23:37.268Z,88.97
2023-04-26T19:26:06.254Z,88.26
2023-04-26T19:28:33.301Z,89.64
2023-04-26T19:31:00.897Z,90.42
2023-04-26T19:33:28.541Z,90.57
2023-04-26T19:35:56.900Z,91.09
2023-04-26T19:38:25.211Z,90.51
2023-04-26T19:40:53.328Z,89.95
2023-04-26T19:43:20.914Z,90.07
2023-04-26T19:45:48.249Z,91.47
2023-04-26T19:48:15.289Z,90.17
2023-04-26T19:50:44.183Z,90.27
2023-04-26T19:53:13.377Z,87.27
2023-04-26T19:55:42.668Z,87.00
2023-04-26T19:58:13.261Z,87.39
2023-04-26T20:00:40.701Z,86.02
2023-04-26T20:03:08.072Z,85.90
2023-04-26T20:05:35.389Z,86.11
2023-04-26T20:08:02.633Z,87.26
2023-04-26T20:10:38.091Z,85.27
2023-04-26T20:13:05.127Z,85.67
2023-04-26T20:15:33.873Z,86.92
2023-04-26T20:18:02.495Z,86.69
2023-04-26T20:20:29.670Z,87.56
2023-04-26T20:22:56.794Z,87.96
2023-04-26T20:25:23.829Z,88.73
2023-04-26T20:27:50.804Z,86.83
2023-04-26T20:30:17.728Z,88.12
2023-04-26T20:32:45.061Z,88.32
2023-04-26T20:35:13.877Z,88.61
2023-04-26T20:37:40.929Z,86.49
2023-04-26T20:40:17.607Z,85.81
2023-04-26T20:42:44.616Z,87.17
2023-04-26T20:45:11.780Z,86.23
2023-04-26T20:47:38.867Z,85.81
2023-04-26T20:50:06.469Z,87.17
2023-04-26T20:52:33.748Z,83.89
2023-04-26T20:55:00.912Z,83.92
2023-04-26T20:57:27.867Z,85.59
2023-04-26T20:59:54.889Z,85.50
2023-04-26T21:02:22.044Z,85.51
2023-04-26T21:04:49.582Z,85.58
2023-04-26T21:07:16.715Z,85.57
2023-04-26T21:09:43.958Z,86.02
2023-04-26T21:12:12.532Z,86.08
2023-04-26T21:14:39.446Z,85.43
2023-04-26T21:17:06.454Z,86.80
2023-04-26T21:19:33.683Z,85.09
2023-04-26T21:22:01.287Z,85.28
2023-04-26T21:24:28.419Z,84.72
2023-04-26T21:26:55.528Z,83.51
2023-04-26T21:29:22.513Z,85.09
2023-04-26T21:31:49.560Z,85.81
2023-04-26T21:34:16.582Z,84.39
2023-04-26T21:36:43.626Z,83.24
2023-04-26T21:39:11.269Z,83.35
2023-04-26T21:41:38.480Z,82.56
2023-04-26T21:44:05.381Z,81.46
2023-04-26T21:46:32.567Z,82.54
2023-04-26T21:48:59.658Z,81.48
2023-04-26T21:51:27.994Z,81.92
2023-04-26T21:53:55.022Z,82.50
2023-04-26T21:56:22.023Z,81.10
2023-04-26T21:58:48.930Z,81.23
2023-04-26T22:01:16.896Z,80.83
2023-04-26T22:03:43.941Z,79.96
2023-04-26T22:06:11.734Z,78.35
2023-04-26T22:08:38.947Z,78.21
2023-04-26T22:11:06.202Z,79.74
2023-04-26T22:13:33.119Z,79.94
2023-04-26T22:16:00.255Z,77.30
2023-04-26T22:18:28.677Z,78.01
2023-04-26T22:20:55.696Z,78.81
2023-04-26T22:23:22.625Z,77.37
2023-04-26T22:25:49.642Z,74.98
2023-04-26T22:28:16.799Z,77.40
2023-04-26T22:30:44.080Z,76.04
2023-04-26T22:33:12.424Z,77.56
2023-04-26T22:35:39.507Z,75.47
2023-04-26T22:38:06.554Z,76.43
2023-04-26T22:40:33.915Z,77.72
2023-04-26T22:43:01.079Z,79.64
2023-04-26T22:45:28.194Z,78.35
2023-04-26T22:47:55.125Z,79.46
2023-04-26T22:50:22.350Z,76.21
2023-04-26T22:52:50.000Z,78.68
2023-04-26T22:55:18.197Z,76.46
2023-04-26T22:57:45.475Z,77.88
2023-04-26T23:00:14.407Z,75.62
2023-04-26T23:02:41.730Z,76.05
2023-04-26T23:05:12.176Z,74.51
2023-04-26T23:07:40.202Z,75.49
2023-04-26T23:10:07.972Z,74.75
2023-04-26T23:12:36.324Z,73.99
2023-04-26T23:15:06.343Z,74.65
2023-04-26T23:17:34.417Z,72.36
2023-04-26T23:20:01.816Z,73.77
2023-04-26T23:22:28.836Z,71.60
2023-04-26T23:24:55.842Z,72.65
2023-04-26T23:27:24.605Z,71.92
2023-04-26T23:29:52.019Z,71.14
2023-04-26T23:32:19.158Z,74.38
2023-04-26T23:34:46.107Z,75.11
2023-04-26T23:37:13.021Z,79.13
2023-04-26T23:39:39.914Z,82.68
2023-04-26T23:42:06.970Z,80.29
2023-04-26T23:44:33.952Z,84.31
2023-04-26T23:47:01.207Z,80.96
2023-04-26T23:49:28.382Z,83.44
2023-04-26T23:51:55.375Z,81.97
2023-04-26T23:54:22.422Z,83.03
2023-04-26T23:56:49.335Z,80.79
2023-04-26T23:59:17.063Z,83.10
